Time;durP1;ratioP1;P1;durP2;ratioP2;P2;SDS_P1;SDS_P2;PMS_P1;PMS_P2;Temp;Humidity;BMP_temperature;BMP_pressure;BME280_temperature;BME280_humidity;BME280_pressure;Samples;Min_cycle;Max_cycle;Signal;HPM_P1;HPM_P2
2023/01/30 00:01:22;;;;;;;8.25;5.47;;;;;;;-0.25;62.81;98951.53;5073356;28;20082;-52
2023/01/30 00:03:47;;;;;;;11.10;6.25;;;;;;;-0.27;62.60;98953.41;5072533;28;20463;-51
2023/01/30 00:06:14;;;;;;;10.93;5.80;;;;;;;-0.26;62.56;98943.75;5072651;28;20040;-53
2023/01/30 00:08:39;;;;;;;10.40;6.15;;;;;;;-0.32;63.06;98943.13;5073203;28;20032;-54
2023/01/30 00:11:07;;;;;;;9.52;5.90;;;;;;;-0.46;63.37;98916.66;5071345;28;20102;-53
2023/01/30 00:13:33;;;;;;;10.93;6.75;;;;;;;-0.35;63.17;98940.66;5071912;28;20039;-49
2023/01/30 00:15:58;;;;;;;11.10;5.90;;;;;;;-0.41;63.24;98929.59;5072941;28;20040;-53
2023/01/30 00:18:24;;;;;;;11.50;6.25;;;;;;;-0.38;63.43;98939.94;5073040;28;20490;-52
2023/01/30 00:21:02;;;;;;;12.15;6.68;;;;;;;-0.40;63.48;98932.13;5072586;28;20024;-55
2023/01/30 00:23:29;;;;;;;10.30;6.75;;;;;;;-0.49;63.56;98938.69;5071900;28;20517;-55
2023/01/30 00:25:54;;;;;;;11.50;6.55;;;;;;;-0.46;63.37;98932.44;5073067;28;20454;-50
2023/01/30 00:28:20;;;;;;;11.27;6.55;;;;;;;-0.52;63.50;98917.81;5072536;28;20094;-54
2023/01/30 00:30:53;;;;;;;9.82;6.28;;;;;;;-0.49;64.14;98911.53;5071517;28;20257;-52
2023/01/30 00:33:20;;;;;;;11.18;6.88;;;;;;;-0.54;64.04;98903.88;5072864;28;20128;-49
2023/01/30 00:35:47;;;;;;;12.52;6.15;;;;;;;-0.51;63.90;98900.25;5072869;28;20028;-51
2023/01/30 00:38:14;;;;;;;12.55;6.82;;;;;;;-0.56;63.78;98897.84;5072561;28;20063;-52
2023/01/30 00:40:40;;;;;;;12.38;6.57;;;;;;;-0.57;63.70;98904.03;5071939;28;20036;-50
2023/01/30 00:48:37;;;;;;;12.30;6.38;;;;;;;-0.67;63.77;98889.66;5052597;28;20116;-53
2023/01/30 00:51:03;;;;;;;12.23;6.82;;;;;;;-0.69;64.83;98899.41;5058083;28;20135;-52
2023/01/30 00:53:28;;;;;;;9.48;6.18;;;;;;;-0.68;64.34;98891.41;5072735;28;20035;-55
2023/01/30 00:55:54;;;;;;;11.38;6.00;;;;;;;-0.68;64.02;98898.47;5072712;28;20036;-55
2023/01/30 00:58:21;;;;;;;9.77;5.93;;;;;;;-0.74;64.65;98887.31;5071762;28;20029;-53
2023/01/30 01:00:47;;;;;;;11.13;6.15;;;;;;;-0.77;64.22;98884.84;5072263;28;20028;-50
2023/01/30 01:03:13;;;;;;;11.30;6.38;;;;;;;-0.76;64.15;98877.81;5072487;28;20438;-53
2023/01/30 01:05:38;;;;;;;10.23;6.03;;;;;;;-0.80;64.77;98886.78;5072354;28;20443;-53
2023/01/30 01:08:04;;;;;;;13.43;6.35;;;;;;;-0.78;64.77;98877.03;5071575;28;20036;-56
2023/01/30 01:10:31;;;;;;;9.85;5.95;;;;;;;-0.78;64.84;98879.66;5070954;28;20482;-56
2023/01/30 01:12:56;;;;;;;11.35;6.45;;;;;;;-0.81;64.69;98869.31;5072807;28;20089;-53
2023/01/30 01:15:23;;;;;;;11.82;6.55;;;;;;;-0.73;64.27;98878.50;5072060;28;20037;-55
2023/01/30 01:17:49;;;;;;;14.20;7.03;;;;;;;-0.79;64.68;98862.19;5071904;28;20810;-54
2023/01/30 01:20:16;;;;;;;13.93;6.85;;;;;;;-0.75;64.66;98872.47;5071316;28;20040;-54
2023/01/30 01:22:41;;;;;;;12.65;6.30;;;;;;;-0.78;64.86;98858.66;5072167;28;20036;-51
2023/01/30 01:25:09;;;;;;;11.13;6.60;;;;;;;-0.77;64.75;98866.44;5072258;28;20090;-49
2023/01/30 01:27:34;;;;;;;13.27;6.63;;;;;;;-0.82;64.90;98857.94;5072956;28;20097;-54
2023/01/30 01:29:59;;;;;;;13.38;6.80;;;;;;;-0.78;64.67;98859.47;5075891;28;20062;-58
2023/01/30 01:32:25;;;;;;;12.15;6.63;;;;;;;-0.74;64.67;98857.56;5075237;28;20036;-56
2023/01/30 01:34:51;;;;;;;13.88;6.55;;;;;;;-0.77;64.67;98847.19;5075859;28;20439;-53
2023/01/30 01:37:16;;;;;;;12.57;6.22;;;;;;;-0.72;64.79;98853.06;5074365;28;20366;-51
2023/01/30 01:42:32;;;;;;;13.48;7.20;;;;;;;-0.68;64.87;98832.75;5075680;28;20047;-56
2023/01/30 01:45:13;;;;;;;11.63;6.85;;;;;;;-0.63;65.27;98825.47;5075718;28;20035;-55
2023/01/30 01:48:01;;;;;;;12.40;6.68;;;;;;;-0.65;65.24;98822.06;5074637;28;20370;-54
2023/01/30 01:50:41;;;;;;;12.38;7.03;;;;;;;-0.73;65.32;98802.28;5075689;28;20032;-54
2023/01/30 01:53:09;;;;;;;15.18;7.30;;;;;;;-0.76;65.46;98801.59;5055542;28;20068;-52
2023/01/30 01:55:35;;;;;;;14.13;6.70;;;;;;;-0.79;65.59;98799.97;5060526;28;20036;-56
2023/01/30 01:58:30;;;;;;;11.32;6.20;;;;;;;-0.71;66.09;98804.00;5075321;28;20021;-53
2023/01/30 02:00:58;;;;;;;11.73;6.47;;;;;;;-0.79;66.17;98799.13;5069000;28;20459;-53
2023/01/30 02:03:26;;;;;;;13.15;7.57;;;;;;;-0.79;65.87;98792.06;5075802;28;20079;-52
2023/01/30 02:05:56;;;;;;;12.27;6.18;;;;;;;-0.77;66.06;98794.63;5075363;28;20095;-50
2023/01/30 02:08:38;;;;;;;13.02;6.55;;;;;;;-0.77;66.24;98787.59;5074822;28;20791;-54
2023/01/30 02:11:13;;;;;;;12.32;6.63;;;;;;;-0.79;66.20;98785.97;5075581;28;20166;-52
2023/01/30 02:13:39;;;;;;;10.83;6.63;;;;;;;-0.85;66.49;98781.88;5074892;28;20039;-49
2023/01/30 02:16:06;;;;;;;13.10;6.28;;;;;;;-0.84;66.48;98790.59;5074499;28;20040;-53
2023/01/30 02:18:34;;;;;;;9.70;5.78;;;;;;;-0.85;66.69;98781.88;5075495;28;20055;-54
2023/01/30 02:21:11;;;;;;;11.52;6.53;;;;;;;-0.81;67.07;98786.03;5074111;28;20451;-56
2023/01/30 02:24:09;;;;;;;11.85;6.57;;;;;;;-0.77;66.87;98778.88;5064276;28;20466;-54
2023/01/30 02:26:44;;;;;;;10.43;6.05;;;;;;;-0.76;66.85;98777.94;5075165;28;20051;-54
2023/01/30 02:29:28;;;;;;;10.82;6.80;;;;;;;-0.77;66.89;98766.56;5054567;28;20032;-49
2023/01/30 02:32:06;;;;;;;12.60;6.63;;;;;;;-0.74;66.71;98763.78;5055094;28;20570;-49
2023/01/30 02:34:41;;;;;;;12.52;7.03;;;;;;;-0.94;66.71;98727.16;5055207;28;20057;-51
2023/01/30 02:37:22;;;;;;;11.55;6.50;;;;;;;-0.74;66.75;98761.13;5055093;28;20025;-50
2023/01/30 02:39:51;;;;;;;11.82;6.22;;;;;;;-0.74;66.30;98744.53;5072586;28;20036;-56
2023/01/30 02:42:29;;;;;;;13.65;7.43;;;;;;;-0.71;65.95;98744.38;5074315;28;20044;-53
2023/01/30 02:45:01;;;;;;;11.43;6.55;;;;;;;-0.78;66.27;98741.22;5074390;28;20048;-52
2023/01/30 02:47:38;;;;;;;12.65;7.22;;;;;;;-0.71;65.91;98738.28;5073361;28;20044;-57
2023/01/30 02:50:14;;;;;;;14.32;7.60;;;;;;;-0.74;66.08;98739.28;5074833;28;20036;-53
2023/01/30 02:52:41;;;;;;;13.18;6.90;;;;;;;-0.77;65.79;98724.50;5074389;28;20032;-52
2023/01/30 02:55:24;;;;;;;13.13;7.20;;;;;;;-0.69;65.69;98726.75;5073104;28;20029;-50
2023/01/30 02:57:49;;;;;;;13.10;7.05;;;;;;;-0.78;65.61;98714.91;5074647;28;20028;-52
2023/01/30 03:00:21;;;;;;;13.95;7.80;;;;;;;-0.81;65.84;98717.72;5074451;28;20067;-51
2023/01/30 03:03:11;;;;;;;13.50;7.13;;;;;;;-0.68;65.68;98727.59;5073318;28;20033;-50
2023/01/30 03:05:42;;;;;;;13.65;6.82;;;;;;;-0.74;65.23;98724.34;5074603;28;20446;-53
2023/01/30 03:08:10;;;;;;;14.65;7.15;;;;;;;-0.75;65.18;98712.13;5074197;28;20028;-51
2023/01/30 03:10:46;;;;;;;14.10;7.78;;;;;;;-0.77;65.50;98706.09;5074515;28;20093;-53
2023/01/30 03:13:30;;;;;;;10.77;6.50;;;;;;;-0.75;65.29;98706.88;5073912;28;20040;-53
2023/01/30 03:16:01;;;;;;;13.02;7.10;;;;;;;-0.73;65.32;98683.16;5073705;28;20041;-52
2023/01/30 03:18:27;;;;;;;11.98;6.47;;;;;;;-0.73;65.17;98688.41;5073942;28;20170;-52
2023/01/30 03:20:52;;;;;;;11.70;6.78;;;;;;;-0.75;64.85;98680.59;5073980;28;20028;-51
2023/01/30 03:23:18;;;;;;;13.32;7.22;;;;;;;-0.79;65.33;98681.69;5073506;28;20025;-55
2023/01/30 03:25:45;;;;;;;10.82;6.45;;;;;;;-0.81;65.03;98678.28;5073549;28;20033;-53
2023/01/30 03:28:15;;;;;;;12.15;7.28;;;;;;;-0.81;64.79;98669.56;5073283;28;20029;-52
2023/01/30 03:30:41;;;;;;;14.80;7.18;;;;;;;-1.06;65.70;98639.31;5073719;28;20040;-53
2023/01/30 03:33:06;;;;;;;10.40;6.50;;;;;;;-0.83;65.35;98679.31;5073619;28;20037;-53
2023/01/30 03:35:32;;;;;;;12.82;6.90;;;;;;;-0.87;65.31;98668.09;5073477;28;20048;-53
2023/01/30 03:37:58;;;;;;;11.50;6.72;;;;;;;-0.90;64.92;98657.75;5073100;28;20076;-53
2023/01/30 03:40:24;;;;;;;11.93;6.88;;;;;;;-0.80;64.70;98671.28;5073575;28;20498;-56
2023/01/30 03:42:49;;;;;;;12.65;7.13;;;;;;;-0.83;64.96;98669.63;5072508;28;20036;-51
2023/01/30 03:45:15;;;;;;;12.32;6.95;;;;;;;-0.83;64.71;98667.00;5073801;28;20187;-49
2023/01/30 03:47:40;;;;;;;13.35;7.35;;;;;;;-0.96;65.19;98653.66;5072560;28;20039;-52
2023/01/30 03:50:06;;;;;;;12.35;6.97;;;;;;;-0.94;64.81;98653.59;5073565;28;20439;-53
2023/01/30 03:52:34;;;;;;;12.85;7.30;;;;;;;-0.90;65.03;98655.97;5073529;28;20439;-51
2023/01/30 03:55:00;;;;;;;13.75;7.78;;;;;;;-0.89;64.98;98648.94;5073169;28;20100;-51
2023/01/30 03:57:25;;;;;;;12.95;7.35;;;;;;;-0.92;65.39;98639.44;5073533;28;20081;-52
2023/01/30 03:59:51;;;;;;;14.48;7.82;;;;;;;-0.92;65.22;98635.97;5073133;28;20400;-52
2023/01/30 04:02:21;;;;;;;12.55;7.05;;;;;;;-0.86;64.96;98640.91;5072163;28;20036;-48
2023/01/30 04:04:46;;;;;;;11.15;6.82;;;;;;;-0.87;64.95;98615.56;5072900;28;20112;-50
2023/01/30 04:07:12;;;;;;;12.38;7.47;;;;;;;-0.87;64.89;98611.13;5072341;28;20206;-51
2023/01/30 04:09:37;;;;;;;12.57;7.40;;;;;;;-0.85;64.76;98615.44;5073055;28;20056;-50
2023/01/30 04:12:03;;;;;;;12.13;7.32;;;;;;;-0.83;64.83;98611.81;5072946;28;20048;-50
2023/01/30 04:14:28;;;;;;;13.23;7.30;;;;;;;-0.80;64.88;98605.56;5071742;28;20025;-53
2023/01/30 04:16:54;;;;;;;11.85;7.30;;;;;;;-0.97;64.57;98575.78;5072511;28;20028;-54
2023/01/30 04:19:19;;;;;;;15.43;8.30;;;;;;;-0.80;65.03;98603.78;5072981;28;20172;-55
2023/01/30 04:21:45;;;;;;;14.25;8.15;;;;;;;-0.77;64.78;98597.50;5072388;28;20123;-54
2023/01/30 04:24:10;;;;;;;14.80;8.48;;;;;;;-0.75;64.79;98596.47;5072572;28;20458;-52
2023/01/30 04:26:36;;;;;;;12.32;6.85;;;;;;;-0.70;64.29;98591.00;5072360;28;20028;-53
2023/01/30 04:29:01;;;;;;;12.95;7.30;;;;;;;-0.76;64.37;98586.91;5072377;28;20504;-53
2023/01/30 04:31:26;;;;;;;15.18;8.50;;;;;;;-0.81;64.53;98591.56;5072319;28;20407;-50
2023/01/30 04:33:52;;;;;;;12.57;7.13;;;;;;;-0.78;64.47;98591.41;5072742;28;20565;-53
2023/01/30 04:36:17;;;;;;;13.93;7.63;;;;;;;-0.74;64.58;98586.84;5072637;28;20482;-55
2023/01/30 04:38:43;;;;;;;14.57;7.57;;;;;;;-0.77;64.87;98598.34;5072197;28;20040;-55
2023/01/30 04:41:08;;;;;;;12.93;6.93;;;;;;;-0.87;64.01;98561.19;5072035;28;20481;-51
2023/01/30 04:43:34;;;;;;;12.32;7.13;;;;;;;-0.82;64.45;98571.47;5072156;28;20359;-51
2023/01/30 04:45:59;;;;;;;12.88;7.85;;;;;;;-0.82;64.10;98578.53;5072637;28;20025;-55
2023/01/30 04:48:25;;;;;;;13.25;7.90;;;;;;;-0.83;64.14;98569.78;5072008;28;20120;-52
2023/01/30 04:50:53;;;;;;;12.27;7.72;;;;;;;-1.03;64.71;98537.53;5072614;28;20125;-51
2023/01/30 04:53:19;;;;;;;13.68;7.50;;;;;;;-0.91;64.66;98554.41;5072387;28;20032;-53
2023/01/30 04:55:45;;;;;;;12.23;7.60;;;;;;;-0.84;64.72;98564.59;5071494;28;20051;-50
2023/01/30 04:58:11;;;;;;;13.55;8.18;;;;;;;-0.87;64.81;98549.84;5072464;28;20045;-54
2023/01/30 05:00:37;;;;;;;12.40;7.60;;;;;;;-0.81;65.03;98560.03;5072430;28;20041;-52
2023/01/30 05:03:03;;;;;;;12.93;7.43;;;;;;;-0.84;64.95;98549.69;5071070;28;20406;-50
2023/01/30 05:05:28;;;;;;;12.60;7.63;;;;;;;-0.89;64.73;98542.03;5072435;28;20028;-52
2023/01/30 05:07:54;;;;;;;15.13;8.25;;;;;;;-0.78;64.51;98544.09;5070699;28;20055;-52
2023/01/30 05:10:19;;;;;;;13.90;7.32;;;;;;;-0.76;64.14;98539.59;5071606;28;20117;-56
2023/01/30 05:12:45;;;;;;;11.95;7.60;;;;;;;-0.80;64.22;98534.59;5072250;28;20470;-50
2023/01/30 05:15:11;;;;;;;14.05;7.72;;;;;;;-0.87;64.45;98528.84;5072598;28;20033;-53
2023/01/30 05:17:37;;;;;;;12.50;7.22;;;;;;;-0.89;64.96;98528.06;5072239;28;20474;-54
2023/01/30 05:20:04;;;;;;;14.65;8.15;;;;;;;-0.85;64.59;98515.59;5071665;28;20143;-63
2023/01/30 05:22:29;;;;;;;14.43;8.35;;;;;;;-0.92;64.71;98509.84;5071508;28;20455;-69
2023/01/30 05:24:55;;;;;;;12.93;8.00;;;;;;;-0.87;64.63;98508.66;5071570;28;20055;-55
2023/01/30 05:27:20;;;;;;;12.20;7.60;;;;;;;-0.87;64.60;98513.91;5070140;28;20036;-53
2023/01/30 05:29:46;;;;;;;13.32;7.85;;;;;;;-0.82;64.95;98497.88;5071466;28;20028;-52
2023/01/30 05:32:13;;;;;;;13.65;7.35;;;;;;;-0.93;64.74;98466.94;5072258;28;20032;-51
2023/01/30 05:34:38;;;;;;;13.20;7.60;;;;;;;-0.71;64.06;98488.56;5071906;28;20037;-53
2023/01/30 05:37:04;;;;;;;13.93;8.10;;;;;;;-0.74;64.19;98493.03;5071812;28;20436;-54
2023/01/30 05:39:30;;;;;;;13.57;7.70;;;;;;;-0.82;64.68;98489.19;5071572;28;20097;-58
2023/01/30 05:41:56;;;;;;;14.00;8.05;;;;;;;-0.76;64.76;98491.44;5071842;28;20050;-55
2023/01/30 05:44:21;;;;;;;13.75;8.18;;;;;;;-0.81;64.41;98467.22;5071889;28;20024;-68
2023/01/30 05:46:47;;;;;;;12.63;7.30;;;;;;;-0.62;63.73;98486.25;5071481;28;20032;-64
2023/01/30 05:49:12;;;;;;;14.15;8.02;;;;;;;-0.62;63.89;98481.00;5072170;28;20033;-60
2023/01/30 05:51:38;;;;;;;13.70;8.48;;;;;;;-0.67;63.94;98482.22;5072145;28;20036;-56
2023/01/30 05:54:03;;;;;;;13.95;8.20;;;;;;;-0.67;64.43;98479.59;5071701;28;20105;-56
2023/01/30 05:56:32;;;;;;;12.75;8.38;;;;;;;-0.79;64.35;98454.84;5072175;28;20025;-57
2023/01/30 05:58:58;;;;;;;13.85;8.00;;;;;;;-0.66;63.93;98471.59;5071717;28;20032;-60
2023/01/30 06:01:25;;;;;;;15.15;8.57;;;;;;;-0.67;64.25;98463.81;5072009;28;20047;-58
2023/01/30 06:03:51;;;;;;;13.10;8.02;;;;;;;-0.63;63.76;98467.97;5071949;28;20071;-59
2023/01/30 06:06:17;;;;;;;14.20;8.25;;;;;;;-0.63;63.84;98460.06;5072039;28;20064;-59
2023/01/30 06:08:42;;;;;;;14.23;8.02;;;;;;;-0.57;64.08;98462.34;5071911;28;20364;-58
2023/01/30 06:11:14;;;;;;;13.43;8.30;;;;;;;-0.45;64.01;98459.03;5072251;28;20039;-54
2023/01/30 06:13:40;;;;;;;15.73;8.35;;;;;;;-0.47;63.64;98471.41;5073371;28;20029;-54
2023/01/30 06:16:07;;;;;;;15.43;8.32;;;;;;;-0.41;63.64;98458.84;5075326;28;20040;-56
2023/01/30 06:18:33;;;;;;;14.95;8.85;;;;;;;-0.42;63.78;98454.53;5074963;28;20029;-53
2023/01/30 06:20:59;;;;;;;14.85;8.43;;;;;;;-0.42;63.51;98446.63;5074897;28;20351;-54
2023/01/30 06:23:24;;;;;;;16.20;8.68;;;;;;;-0.35;63.39;98453.22;5057664;28;20025;-57
2023/01/30 06:25:51;;;;;;;17.75;8.98;;;;;;;-0.39;63.58;98449.09;5074979;28;20032;-62
2023/01/30 06:28:18;;;;;;;14.32;7.95;;;;;;;-0.40;63.95;98447.41;5075286;28;20107;-60
2023/01/30 06:30:44;;;;;;;14.18;8.00;;;;;;;-0.53;63.36;98418.34;5075956;28;20468;-55
2023/01/30 06:33:10;;;;;;;14.27;8.23;;;;;;;-0.38;63.60;98448.16;5075201;28;20021;-56
2023/01/30 06:35:37;;;;;;;15.18;8.57;;;;;;;-0.61;63.94;98424.84;5074801;28;20370;-54
2023/01/30 06:38:03;;;;;;;14.27;8.23;;;;;;;-0.44;63.91;98452.84;5075004;28;20503;-54
2023/01/30 06:40:29;;;;;;;16.55;8.10;;;;;;;-0.45;63.92;98451.13;5075160;28;20032;-54
2023/01/30 06:42:54;;;;;;;13.30;7.88;;;;;;;-0.46;63.94;98443.31;5074739;28;20059;-56
2023/01/30 06:45:20;;;;;;;15.15;8.38;;;;;;;-0.69;64.30;98416.56;5074652;28;20034;-55
2023/01/30 06:47:55;;;;;;;15.77;7.40;;;;;;;-0.48;64.62;98447.81;5074342;28;20074;-57
2023/01/30 06:50:24;;;;;;;13.95;7.40;;;;;;;-0.42;63.92;98449.25;5074661;28;20021;-54
2023/01/30 06:52:51;;;;;;;17.90;8.80;;;;;;;-0.45;63.94;98443.25;5074860;28;20443;-55
2023/01/30 06:55:19;;;;;;;14.30;8.65;;;;;;;-0.42;63.77;98447.47;5074619;28;20455;-54
2023/01/30 06:57:45;;;;;;;18.80;8.75;;;;;;;-0.55;64.20;98428.91;5075210;28;20495;-56
2023/01/30 07:00:19;;;;;;;15.30;8.52;;;;;;;-0.37;64.21;98447.22;5073968;28;20021;-59
2023/01/30 07:02:45;;;;;;;17.55;7.53;;;;;;;-0.61;64.38;98413.50;5073767;28;20408;-58
2023/01/30 07:05:12;;;;;;;11.85;7.55;;;;;;;-0.39;64.20;98443.81;5074144;28;20056;-54
2023/01/30 07:07:38;;;;;;;14.93;7.60;;;;;;;-0.35;64.11;98438.31;5074522;28;20103;-58
2023/01/30 07:10:06;;;;;;;12.93;7.50;;;;;;;-0.40;64.21;98435.06;5074070;28;20029;-69
2023/01/30 07:12:31;;;;;;;15.95;7.97;;;;;;;-0.66;64.75;98405.88;5055629;28;20032;-60
2023/01/30 07:14:57;;;;;;;12.30;7.35;;;;;;;-0.39;64.53;98428.03;5073927;28;20304;-59
2023/01/30 07:17:22;;;;;;;13.40;7.95;;;;;;;-0.33;64.26;98419.78;5073866;28;20062;-57
2023/01/30 07:19:48;;;;;;;13.55;7.68;;;;;;;-0.31;64.42;98421.41;5074293;28;20035;-60
2023/01/30 07:22:14;;;;;;;14.40;8.30;;;;;;;-0.24;63.89;98423.66;5073964;28;20029;-58
2023/01/30 07:24:41;;;;;;;14.65;6.95;;;;;;;-0.27;64.24;98416.78;5072905;28;20143;-53
2023/01/30 07:27:08;;;;;;;12.43;7.30;;;;;;;-0.28;64.46;98415.09;5072462;28;20046;-57
2023/01/30 07:29:34;;;;;;;12.77;7.03;;;;;;;-0.28;64.18;98404.59;5073837;28;20029;-55
2023/01/30 07:32:00;;;;;;;15.25;7.78;;;;;;;-0.24;63.95;98403.50;5073339;28;20036;-58
2023/01/30 07:34:25;;;;;;;14.75;7.47;;;;;;;-0.22;63.88;98404.25;5073746;28;20090;-55
2023/01/30 07:36:51;;;;;;;17.63;8.18;;;;;;;-0.22;64.11;98383.19;5073752;28;20370;-57
2023/01/30 07:39:16;;;;;;;14.02;7.40;;;;;;;-0.35;63.73;98354.16;5072489;28;20101;-61
2023/01/30 07:41:42;;;;;;;13.35;7.30;;;;;;;-0.10;63.55;98383.38;5073734;28;20044;-60
2023/01/30 07:44:07;;;;;;;16.35;7.13;;;;;;;-0.11;63.49;98385.19;5073469;28;20105;-59
2023/01/30 07:46:34;;;;;;;13.68;7.68;;;;;;;-0.17;63.82;98385.53;5072560;28;20500;-55
2023/01/30 07:49:06;;;;;;;21.38;9.05;;;;;;;-0.35;64.00;98350.66;5058999;28;20029;-59
2023/01/30 07:51:32;;;;;;;14.40;7.25;;;;;;;-0.17;63.87;98370.63;5068045;28;20098;-53
2023/01/30 07:53:59;;;;;;;14.50;7.03;;;;;;;-0.21;63.86;98362.97;5060698;28;20454;-55
2023/01/30 07:56:25;;;;;;;13.35;8.32;;;;;;;-0.15;63.82;98371.38;5052930;28;20056;-54
2023/01/30 07:58:50;;;;;;;13.98;7.63;;;;;;;-0.16;64.40;98377.56;5061583;28;20059;-52
2023/01/30 08:01:16;;;;;;;14.80;7.75;;;;;;;-0.10;63.59;98375.50;5072517;28;20033;-54
2023/01/30 08:03:44;;;;;;;14.85;8.48;;;;;;;-0.15;63.56;98358.22;5071294;28;20119;-54
2023/01/30 08:06:11;;;;;;;21.17;9.10;;;;;;;-0.09;64.05;98371.94;5071016;28;20028;-55
2023/01/30 08:08:36;;;;;;;14.25;8.18;;;;;;;0.02;63.66;98369.50;5071741;28;20074;-56
2023/01/30 08:11:02;;;;;;;15.82;9.57;;;;;;;-0.03;63.88;98347.88;5066869;28;20060;-56
2023/01/30 08:13:28;;;;;;;15.80;8.85;;;;;;;0.06;63.87;98346.47;5055062;28;20031;-55
2023/01/30 08:15:53;;;;;;;15.23;8.88;;;;;;;0.09;63.79;98355.03;5073215;28;20097;-54
2023/01/30 08:18:18;;;;;;;15.60;10.10;;;;;;;0.16;64.03;98346.75;5072520;28;20062;-58
2023/01/30 08:20:44;;;;;;;15.93;8.55;;;;;;;-0.03;63.76;98308.41;5072302;28;20435;-56
2023/01/30 08:23:09;;;;;;;14.80;8.70;;;;;;;0.25;63.55;98349.66;5066401;28;20032;-57
2023/01/30 08:25:36;;;;;;;14.98;8.23;;;;;;;0.23;63.80;98334.88;5071563;28;20080;-57
2023/01/30 08:28:02;;;;;;;15.60;9.10;;;;;;;0.29;63.78;98331.91;5063116;28;20025;-54
2023/01/30 08:30:29;;;;;;;15.02;7.65;;;;;;;0.34;63.63;98336.84;5060206;28;20021;-55
2023/01/30 08:32:55;;;;;;;14.23;8.07;;;;;;;0.28;63.93;98309.97;5065459;28;20032;-52
2023/01/30 08:35:20;;;;;;;16.88;8.90;;;;;;;0.24;63.61;98305.84;5061387;28;20028;-51
2023/01/30 08:37:46;;;;;;;16.83;7.88;;;;;;;0.30;63.57;98311.66;5061899;28;20053;-55
2023/01/30 08:40:12;;;;;;;15.18;7.97;;;;;;;0.22;64.21;98317.41;5059933;28;20087;-58
2023/01/30 08:42:38;;;;;;;17.75;8.50;;;;;;;0.24;64.34;98308.47;5060492;28;20050;-53
2023/01/30 08:45:04;;;;;;;16.20;8.52;;;;;;;0.13;64.29;98274.94;5062260;28;20456;-56
2023/01/30 08:47:30;;;;;;;13.80;8.05;;;;;;;0.42;64.21;98309.09;5060257;28;20036;-56
2023/01/30 08:49:56;;;;;;;15.10;8.45;;;;;;;0.47;63.96;98305.31;5062282;28;20052;-56
2023/01/30 08:52:21;;;;;;;14.57;7.45;;;;;;;0.53;63.92;98302.31;5065152;28;20367;-58
2023/01/30 08:54:46;;;;;;;12.93;7.85;;;;;;;0.55;63.65;98293.38;5057236;28;20039;-52
2023/01/30 08:57:13;;;;;;;14.40;7.32;;;;;;;0.58;63.59;98297.59;5052504;28;20032;-58
2023/01/30 08:59:38;;;;;;;13.00;7.47;;;;;;;0.43;62.85;98276.56;5051315;28;20021;-55
2023/01/30 09:02:04;;;;;;;13.27;7.55;;;;;;;0.60;63.08;98285.19;5067885;28;20094;-57
2023/01/30 09:04:30;;;;;;;19.85;8.23;;;;;;;0.58;63.85;98289.69;5059835;28;20098;-55
2023/01/30 09:06:55;;;;;;;15.63;8.45;;;;;;;0.62;63.20;98269.28;5069654;28;20042;-56
2023/01/30 09:09:21;;;;;;;16.35;7.60;;;;;;;0.69;63.21;98283.75;5072317;28;20031;-52
2023/01/30 09:11:47;;;;;;;15.35;8.07;;;;;;;0.73;63.07;98281.78;5071971;28;20063;-55
2023/01/30 09:14:15;;;;;;;12.52;7.50;;;;;;;0.81;63.01;98279.47;5066251;28;20521;-54
2023/01/30 09:16:40;;;;;;;12.07;7.68;;;;;;;0.68;62.74;98261.81;5066906;28;20044;-53
2023/01/30 09:19:06;;;;;;;21.15;7.20;;;;;;;0.77;62.77;98267.44;5064827;28;20037;-52
2023/01/30 09:21:31;;;;;;;12.30;7.57;;;;;;;0.65;63.11;98261.19;5051906;28;20440;-56
2023/01/30 09:23:56;;;;;;;17.85;8.02;;;;;;;0.69;63.01;98267.94;5052314;28;20029;-55
2023/01/30 09:26:22;;;;;;;11.35;7.10;;;;;;;0.70;63.33;98261.72;5053533;28;20520;-55
2023/01/30 09:28:48;;;;;;;14.30;6.20;;;;;;;0.81;62.65;98266.28;5052014;28;20147;-56
2023/01/30 09:31:13;;;;;;;14.60;7.50;;;;;;;0.70;63.39;98245.91;5052082;28;20094;-54
2023/01/30 09:33:39;;;;;;;13.30;7.28;;;;;;;0.76;63.37;98247.31;5063914;28;20453;-56
2023/01/30 09:36:05;;;;;;;12.95;7.95;;;;;;;0.84;63.00;98231.84;5071701;28;20359;-56
2023/01/30 09:38:30;;;;;;;14.35;7.68;;;;;;;0.76;62.97;98236.78;5070663;28;20417;-56
2023/01/30 09:41:12;;;;;;;13.52;7.50;;;;;;;0.88;62.47;98241.22;5071630;28;20033;-56
2023/01/30 09:44:32;;;;;;;11.43;7.10;;;;;;;0.92;63.14;98218.16;5068440;28;20063;-57
2023/01/30 09:47:19;;;;;;;18.70;9.15;;;;;;;1.02;62.57;98219.22;5029762;28;20041;-56
2023/01/30 09:49:47;;;;;;;20.98;8.15;;;;;;;0.95;62.43;98212.69;5073417;28;20423;-55
2023/01/30 09:52:58;;;;;;;21.63;9.40;;;;;;;1.10;62.68;98205.53;5075786;28;20040;-53
2023/01/30 09:55:28;;;;;;;14.20;7.65;;;;;;;1.04;62.53;98198.03;5070341;28;20086;-61
2023/01/30 09:57:56;;;;;;;13.55;7.30;;;;;;;1.14;62.22;98209.63;5075046;28;20043;-58
2023/01/30 10:00:45;;;;;;;14.70;7.85;;;;;;;1.17;62.42;98201.50;5075144;28;20036;-56
2023/01/30 10:03:17;;;;;;;12.98;7.47;;;;;;;1.09;62.41;98202.06;5075359;28;20059;-58
2023/01/30 10:05:50;;;;;;;13.00;7.15;;;;;;;1.10;62.35;98194.97;5074912;28;20033;-58
2023/01/30 10:08:27;;;;;;;12.73;7.47;;;;;;;1.16;62.21;98186.66;5075459;28;20036;-54
2023/01/30 10:11:18;;;;;;;13.07;7.65;;;;;;;1.11;62.02;98192.25;5076073;28;20091;-53
2023/01/30 10:14:15;;;;;;;13.85;8.63;;;;;;;1.13;62.08;98184.22;5074879;28;20567;-55
2023/01/30 10:16:47;;;;;;;11.95;7.93;;;;;;;1.10;62.09;98187.06;5075241;28;20063;-55
2023/01/30 10:19:44;;;;;;;17.25;8.60;;;;;;;1.10;62.39;98176.53;5074616;28;20029;-52
2023/01/30 10:22:29;;;;;;;12.98;7.43;;;;;;;1.12;62.42;98174.63;5062633;28;20095;-55
2023/01/30 10:25:12;;;;;;;15.43;8.48;;;;;;;1.19;61.94;98170.63;5074860;28;20372;-55
2023/01/30 10:27:47;;;;;;;15.25;7.80;;;;;;;1.17;61.83;98176.97;5074508;28;20396;-56
2023/01/30 10:30:15;;;;;;;14.05;8.20;;;;;;;1.16;61.70;98178.75;5074729;28;20401;-55
2023/01/30 10:32:50;;;;;;;14.05;7.28;;;;;;;1.13;61.96;98171.03;5074092;28;20098;-59
2023/01/30 10:35:20;;;;;;;13.48;8.18;;;;;;;1.10;61.79;98160.72;5063480;28;20064;-61
2023/01/30 10:38:05;;;;;;;14.20;7.88;;;;;;;1.18;61.89;98163.66;5055901;28;20514;-62
2023/01/30 10:40:43;;;;;;;13.02;7.75;;;;;;;1.07;62.08;98150.38;5074108;28;20024;-62
2023/01/30 10:43:33;;;;;;;14.40;7.85;;;;;;;1.11;61.99;98144.81;5074561;28;20470;-62
2023/01/30 10:46:24;;;;;;;17.33;8.93;;;;;;;1.06;62.07;98146.88;5067167;28;20032;-55
2023/01/30 10:49:10;;;;;;;15.18;8.20;;;;;;;1.01;62.23;98135.81;5073779;28;20032;-57
2023/01/30 10:52:25;;;;;;;16.70;8.98;;;;;;;1.15;62.43;98150.69;5054653;28;20118;-56
2023/01/30 10:55:23;;;;;;;14.55;8.05;;;;;;;1.08;61.85;98126.53;5012266;28;20040;-57
2023/01/30 10:57:57;;;;;;;17.50;8.40;;;;;;;1.07;62.15;98131.94;4992089;28;20377;-58
2023/01/30 11:00:32;;;;;;;13.55;8.02;;;;;;;1.13;61.89;98129.72;5047615;28;20036;-56
2023/01/30 11:03:07;;;;;;;13.88;8.15;;;;;;;1.14;61.74;98117.38;5073642;28;20032;-58
2023/01/30 11:05:44;;;;;;;12.93;7.93;;;;;;;1.22;61.74;98125.63;5073730;28;20333;-57
2023/01/30 11:08:34;;;;;;;14.07;8.10;;;;;;;1.24;61.80;98110.53;5073901;28;20036;-54
2023/01/30 11:11:00;;;;;;;15.32;8.57;;;;;;;1.06;62.11;98096.81;5066723;28;20048;-58
2023/01/30 11:13:31;;;;;;;14.52;7.90;;;;;;;1.13;61.80;98118.31;5074109;28;20026;-59
2023/01/30 11:16:07;;;;;;;13.52;7.72;;;;;;;1.08;62.23;98099.34;5073489;28;20056;-60
2023/01/30 11:18:44;;;;;;;15.00;8.73;;;;;;;1.06;62.34;98104.72;5073771;28;20041;-58
2023/01/30 11:21:21;;;;;;;13.88;8.05;;;;;;;1.07;62.42;98097.66;5073350;28;20408;-55
2023/01/30 11:23:46;;;;;;;16.23;8.18;;;;;;;1.06;62.18;98094.19;5074108;28;20120;-58
2023/01/30 11:26:38;;;;;;;13.77;8.73;;;;;;;1.12;62.13;98088.50;5074178;28;20115;-58
2023/01/30 11:29:30;;;;;;;13.48;8.38;;;;;;;1.11;62.47;98085.97;5069616;28;20052;-58
2023/01/30 11:32:01;;;;;;;14.13;8.05;;;;;;;1.07;62.12;98087.13;5073503;28;20458;-59
2023/01/30 11:34:27;;;;;;;17.00;8.13;;;;;;;1.05;62.05;98083.75;5073506;28;20039;-60
2023/01/30 11:36:52;;;;;;;15.27;8.77;;;;;;;0.99;62.18;98075.34;5056624;28;20029;-59
2023/01/30 11:39:22;;;;;;;14.82;9.02;;;;;;;1.02;62.64;98078.69;5053894;28;20136;-52
2023/01/30 11:41:53;;;;;;;14.07;8.20;;;;;;;1.02;62.70;98078.69;5053770;28;20120;-51
2023/01/30 11:44:25;;;;;;;15.82;8.50;;;;;;;1.02;63.19;98076.91;5053500;28;20072;-53
2023/01/30 11:46:51;;;;;;;15.85;9.45;;;;;;;0.92;63.41;98073.22;5057191;28;20032;-61